createdAt,value
2017-10-28T00:00:39.656Z,1.20
2017-10-28T00:03:07.132Z,1.17
2017-10-28T00:05:34.607Z,1.70
2017-10-28T00:08:02.067Z,1.83
2017-10-28T00:10:29.548Z,2.37
2017-10-28T00:12:57.772Z,1.80
2017-10-28T00:15:25.260Z,2.47
2017-10-28T00:17:52.733Z,1.60
2017-10-28T00:20:21.000Z,1.47
2017-10-28T00:22:48.455Z,2.17
2017-10-28T00:25:15.927Z,2.00
2017-10-28T00:27:44.161Z,2.10
2017-10-28T00:30:17.531Z,1.73
2017-10-28T00:32:50.831Z,1.90
2017-10-28T00:35:24.143Z,1.70
2017-10-28T00:37:52.248Z,1.97
2017-10-28T00:40:20.520Z,1.60
2017-10-28T00:42:47.987Z,2.20
2017-10-28T00:45:16.235Z,2.07
2017-10-28T00:47:43.705Z,2.03
2017-10-28T00:50:11.172Z,2.00
2017-10-28T00:52:40.368Z,1.80
2017-10-28T00:55:08.623Z,2.10
2017-10-28T00:57:36.097Z,2.20
2017-10-28T01:00:04.366Z,2.30
2017-10-28T01:02:31.824Z,2.30
2017-10-28T01:04:59.294Z,2.07
2017-10-28T01:07:28.151Z,3.90
2017-10-28T01:09:55.717Z,3.77
2017-10-28T01:12:23.288Z,3.33
2017-10-28T01:14:50.734Z,3.10
2017-10-28T01:17:18.206Z,3.37
2017-10-28T01:19:45.672Z,2.80
2017-10-28T01:22:13.896Z,2.93
2017-10-28T01:24:41.378Z,3.50
2017-10-28T01:27:08.848Z,2.60
2017-10-28T01:29:36.302Z,3.03
2017-10-28T01:32:03.764Z,2.70
2017-10-28T01:34:32.103Z,3.10
2017-10-28T01:36:59.546Z,2.60
2017-10-28T01:39:27.006Z,2.80
2017-10-28T01:41:54.474Z,2.93
2017-10-28T01:44:21.969Z,3.37
2017-10-28T01:46:50.228Z,2.60
2017-10-28T01:49:17.707Z,4.00
2017-10-28T01:51:45.937Z,2.80
2017-10-28T01:54:14.175Z,3.10
2017-10-28T01:56:41.696Z,2.97
2017-10-28T01:59:09.247Z,2.73
2017-10-28T02:01:36.812Z,2.63
2017-10-28T02:04:04.281Z,3.00
2017-10-28T02:06:31.736Z,3.27
2017-10-28T02:08:59.190Z,3.60
2017-10-28T02:11:27.431Z,3.23
2017-10-28T02:13:54.896Z,3.47
2017-10-28T02:16:22.351Z,3.27
2017-10-28T02:18:49.828Z,3.50
2017-10-28T02:21:18.404Z,3.50
2017-10-28T02:23:45.847Z,3.40
2017-10-28T02:26:13.423Z,4.87
2017-10-28T02:28:40.884Z,7.33
2017-10-28T02:31:08.364Z,6.30
2017-10-28T02:33:36.623Z,8.10
2017-10-28T02:36:04.076Z,8.53
2017-10-28T02:38:31.532Z,9.00
2017-10-28T02:40:59.115Z,10.67
2017-10-28T02:43:27.343Z,10.67
2017-10-28T02:45:54.812Z,11.33
2017-10-28T02:48:22.287Z,10.40
2017-10-28T02:50:50.515Z,11.03
2017-10-28T02:53:17.984Z,11.30
2017-10-28T02:55:45.480Z,11.47
2017-10-28T02:58:13.718Z,12.40
2017-10-28T03:00:41.192Z,13.27
2017-10-28T03:03:08.752Z,12.00
2017-10-28T03:05:36.311Z,13.50
2017-10-28T03:08:04.608Z,13.50
2017-10-28T03:10:32.871Z,15.17
2017-10-28T03:13:00.332Z,14.27
2017-10-28T03:15:28.617Z,12.83
2017-10-28T03:17:56.860Z,13.27
2017-10-28T03:20:24.434Z,12.20
2017-10-28T03:22:51.908Z,10.90
2017-10-28T03:25:20.152Z,9.97
2017-10-28T03:27:47.624Z,10.23
2017-10-28T03:30:15.072Z,9.37
2017-10-28T03:32:43.267Z,7.13
2017-10-28T03:35:11.496Z,6.67
2017-10-28T03:37:39.003Z,6.47
2017-10-28T03:40:07.236Z,5.87
2017-10-28T03:42:34.690Z,6.10
2017-10-28T03:45:02.171Z,6.07
2017-10-28T03:47:29.643Z,5.30
2017-10-28T03:49:57.870Z,5.57
2017-10-28T03:52:25.349Z,4.60
2017-10-28T03:54:52.899Z,4.90
2017-10-28T03:57:20.370Z,4.60
2017-10-28T03:59:47.839Z,5.33
2017-10-28T04:02:16.107Z,3.70
2017-10-28T04:04:43.672Z,3.80
2017-10-28T04:07:11.127Z,5.80
2017-10-28T04:09:39.098Z,3.90
2017-10-28T04:12:06.702Z,3.33
2017-10-28T04:14:34.216Z,3.00
2017-10-28T04:17:01.731Z,3.27
2017-10-28T04:19:29.246Z,2.80
2017-10-28T04:21:56.779Z,3.67
2017-10-28T04:24:24.251Z,3.70
2017-10-28T04:26:52.502Z,3.40
2017-10-28T04:29:19.954Z,3.50
2017-10-28T04:31:47.436Z,4.07
2017-10-28T04:34:14.891Z,3.27
2017-10-28T04:36:42.443Z,4.10
2017-10-28T04:39:09.922Z,4.00
2017-10-28T04:41:38.168Z,3.93
2017-10-28T04:44:05.613Z,3.10
2017-10-28T04:46:33.088Z,4.03
2017-10-28T04:49:00.545Z,3.60
2017-10-28T04:51:28.016Z,3.57
2017-10-28T04:53:56.255Z,3.20
2017-10-28T04:56:23.727Z,4.70
2017-10-28T04:58:51.188Z,3.20
2017-10-28T05:01:19.126Z,3.40
2017-10-28T05:03:46.612Z,3.53
2017-10-28T05:06:14.174Z,3.57
2017-10-28T05:08:41.732Z,3.97
2017-10-28T05:11:09.190Z,4.00
2017-10-28T05:13:36.748Z,5.00
2017-10-28T05:16:04.229Z,2.60
2017-10-28T05:18:32.459Z,3.40
2017-10-28T05:20:59.933Z,3.20
2017-10-28T05:23:27.409Z,2.80
2017-10-28T05:25:55.663Z,2.73
2017-10-28T05:28:23.127Z,3.50
2017-10-28T05:30:50.689Z,2.57
2017-10-28T05:33:18.144Z,3.03
2017-10-28T05:35:45.700Z,3.63
2017-10-28T05:38:13.251Z,3.27
2017-10-28T05:40:40.711Z,3.00
2017-10-28T05:43:08.182Z,3.43
2017-10-28T05:45:35.727Z,3.60
2017-10-28T05:48:03.192Z,3.10
2017-10-28T05:50:30.652Z,2.80
2017-10-28T05:52:59.904Z,3.40
2017-10-28T05:55:27.363Z,3.37
2017-10-28T05:57:54.829Z,3.40
2017-10-28T06:00:22.298Z,2.60
2017-10-28T06:02:50.384Z,3.70
2017-10-28T06:05:17.831Z,3.10
2017-10-28T06:07:46.079Z,3.90
2017-10-28T06:10:13.571Z,3.57
2017-10-28T06:12:41.019Z,3.43
2017-10-28T06:15:08.496Z,3.53
2017-10-28T06:17:36.719Z,3.30
2017-10-28T06:20:04.312Z,4.30
2017-10-28T06:22:31.799Z,3.47
2017-10-28T06:25:00.054Z,3.13
2017-10-28T06:27:27.519Z,4.23
2017-10-28T06:29:55.771Z,3.20
2017-10-28T06:32:23.235Z,3.67
2017-10-28T06:34:50.727Z,3.73
2017-10-28T06:37:18.250Z,4.13
2017-10-28T06:39:45.721Z,3.70
2017-10-28T06:42:13.269Z,3.73
2017-10-28T06:44:40.736Z,2.90
2017-10-28T06:47:08.288Z,3.13
2017-10-28T06:49:35.759Z,3.30
2017-10-28T06:52:03.986Z,3.87
2017-10-28T06:54:31.463Z,3.40
2017-10-28T06:56:58.963Z,4.03
2017-10-28T06:59:26.427Z,4.87
2017-10-28T07:01:53.891Z,4.37
2017-10-28T07:04:21.372Z,4.47
2017-10-28T07:06:48.864Z,5.17
2017-10-28T07:09:16.319Z,3.80
2017-10-28T07:11:43.798Z,3.30
2017-10-28T07:14:12.027Z,4.33
2017-10-28T07:16:39.504Z,4.57
2017-10-28T07:19:07.759Z,3.40
2017-10-28T07:21:35.220Z,3.13
2017-10-28T07:24:03.603Z,4.33
2017-10-28T07:26:31.081Z,3.00
2017-10-28T07:28:59.216Z,2.63
2017-10-28T07:31:26.830Z,4.20
2017-10-28T07:33:55.059Z,2.53
2017-10-28T07:36:23.102Z,3.90
2017-10-28T07:38:50.561Z,3.07
2017-10-28T07:41:18.058Z,3.50
2017-10-28T07:43:45.520Z,2.40
2017-10-28T07:46:12.986Z,2.43
2017-10-28T07:48:41.304Z,2.27
2017-10-28T07:51:08.763Z,2.50
2017-10-28T07:53:36.222Z,2.70
2017-10-28T07:56:04.711Z,2.80
2017-10-28T07:58:32.388Z,2.90
2017-10-28T08:00:59.849Z,3.40
2017-10-28T08:03:27.315Z,2.13
2017-10-28T08:05:54.789Z,3.33
2017-10-28T08:08:22.251Z,2.73
2017-10-28T08:10:50.504Z,3.00
2017-10-28T08:13:17.961Z,2.70
2017-10-28T08:15:45.415Z,2.20
2017-10-28T08:18:12.989Z,2.90
2017-10-28T08:20:40.439Z,2.90
2017-10-28T08:23:07.911Z,2.17
2017-10-28T08:25:36.149Z,3.10
2017-10-28T08:28:03.623Z,3.10
2017-10-28T08:30:31.185Z,3.37
2017-10-28T08:32:58.762Z,2.20
2017-10-28T08:35:26.988Z,2.90
2017-10-28T08:37:55.346Z,2.43
2017-10-28T08:40:22.862Z,2.70
2017-10-28T08:42:50.331Z,3.30
2017-10-28T08:45:18.595Z,3.30
2017-10-28T08:47:46.831Z,2.63
2017-10-28T08:50:14.317Z,3.27
2017-10-28T08:52:42.503Z,2.13
2017-10-28T08:55:10.737Z,2.97
2017-10-28T08:57:38.379Z,2.60
2017-10-28T09:00:05.843Z,2.40
2017-10-28T09:02:33.307Z,2.53
2017-10-28T09:05:00.768Z,2.37
2017-10-28T09:07:28.251Z,2.87
2017-10-28T09:09:55.824Z,3.13
2017-10-28T09:12:24.046Z,2.40
2017-10-28T09:14:51.530Z,3.70
2017-10-28T09:17:20.920Z,3.97
2017-10-28T09:19:48.399Z,3.57
2017-10-28T09:22:15.923Z,3.83
2017-10-28T09:24:43.399Z,2.77
2017-10-28T09:27:10.860Z,3.40
2017-10-28T09:29:38.329Z,2.60
2017-10-28T09:32:05.837Z,3.77
2017-10-28T09:34:33.417Z,3.40
2017-10-28T09:37:00.992Z,3.37
2017-10-28T09:39:28.464Z,3.00
2017-10-28T09:41:55.994Z,3.27
2017-10-28T09:44:23.477Z,2.97
2017-10-28T09:46:50.945Z,2.60
2017-10-28T09:49:18.419Z,3.17
2017-10-28T09:51:46.640Z,2.80
2017-10-28T09:54:14.094Z,3.17
2017-10-28T09:56:41.563Z,3.17
2017-10-28T09:59:09.812Z,2.77
2017-10-28T10:01:37.288Z,2.60
2017-10-28T10:04:04.755Z,3.77
2017-10-28T10:06:33.136Z,3.30
2017-10-28T10:09:00.601Z,3.10
2017-10-28T10:11:28.080Z,3.20
2017-10-28T10:13:56.327Z,4.00
2017-10-28T10:16:23.825Z,3.43
2017-10-28T10:18:51.298Z,2.40
2017-10-28T10:21:18.779Z,3.23
2017-10-28T10:23:46.252Z,3.37
2017-10-28T10:26:13.717Z,3.60
2017-10-28T10:28:41.183Z,3.27
2017-10-28T10:31:08.651Z,3.00
2017-10-28T10:33:36.884Z,3.13
2017-10-28T10:36:04.356Z,3.80
2017-10-28T10:38:31.820Z,3.27
2017-10-28T10:40:59.275Z,3.23
2017-10-28T10:43:26.751Z,3.37
2017-10-28T10:45:54.203Z,3.07
2017-10-28T10:48:22.436Z,4.00
2017-10-28T10:50:49.906Z,3.10
2017-10-28T10:53:18.190Z,4.10
2017-10-28T10:55:45.667Z,4.73
2017-10-28T10:58:13.152Z,4.00
2017-10-28T11:00:40.609Z,3.30
2017-10-28T11:03:08.776Z,3.27
2017-10-28T11:05:36.259Z,3.73
2017-10-28T11:08:03.724Z,3.00
2017-10-28T11:10:31.193Z,3.97
2017-10-28T11:12:59.640Z,2.97
2017-10-28T11:15:27.124Z,3.50
2017-10-28T11:17:54.613Z,3.90
2017-10-28T11:20:22.080Z,3.27
2017-10-28T11:22:50.306Z,2.90
2017-10-28T11:25:17.765Z,3.60
2017-10-28T11:27:45.236Z,3.57
2017-10-28T11:30:13.627Z,3.63
2017-10-28T11:32:41.084Z,4.03
2017-10-28T11:35:08.559Z,3.47
2017-10-28T11:37:36.805Z,3.37
2017-10-28T11:40:04.270Z,3.50
2017-10-28T11:42:31.781Z,3.50
2017-10-28T11:44:59.251Z,4.17
2017-10-28T11:47:26.714Z,3.43
2017-10-28T11:49:54.194Z,3.83
2017-10-28T11:52:21.652Z,3.23
2017-10-28T11:54:49.111Z,3.33
2017-10-28T11:57:16.588Z,3.93
2017-10-28T11:59:44.896Z,3.70
2017-10-28T12:02:12.375Z,3.77
2017-10-28T12:04:39.855Z,3.73
2017-10-28T12:07:07.307Z,3.87
2017-10-28T12:09:34.776Z,4.50
2017-10-28T12:12:02.260Z,4.20
2017-10-28T12:14:30.499Z,3.73
2017-10-28T12:16:57.956Z,5.20
2017-10-28T12:19:25.435Z,4.00
2017-10-28T12:21:53.651Z,3.37
2017-10-28T12:24:21.110Z,4.17
2017-10-28T12:26:48.582Z,4.50
2017-10-28T12:29:16.064Z,3.43
2017-10-28T12:31:43.708Z,3.53
2017-10-28T12:34:11.191Z,4.10
2017-10-28T12:36:38.659Z,3.50
2017-10-28T12:39:06.907Z,4.57
2017-10-28T12:41:34.400Z,4.00
2017-10-28T12:44:02.632Z,5.10
2017-10-28T12:46:30.095Z,3.83
2017-10-28T12:48:57.581Z,3.17
2017-10-28T12:51:25.812Z,4.03
2017-10-28T12:53:53.275Z,4.13
2017-10-28T12:56:20.749Z,4.20
2017-10-28T12:58:48.211Z,5.43
2017-10-28T13:01:15.674Z,4.53
2017-10-28T13:03:43.145Z,4.50
2017-10-28T13:06:11.371Z,4.30
2017-10-28T13:08:38.841Z,3.70
2017-10-28T13:11:06.307Z,4.50
2017-10-28T13:13:33.773Z,4.63
2017-10-28T13:16:01.232Z,3.43
2017-10-28T13:18:28.746Z,4.70
2017-10-28T13:20:57.014Z,4.30
2017-10-28T13:23:24.516Z,3.80
2017-10-28T13:25:51.997Z,3.80
2017-10-28T13:28:20.217Z,4.03
2017-10-28T13:30:47.684Z,3.83
2017-10-28T13:33:15.168Z,3.37
2017-10-28T13:35:42.619Z,4.57
2017-10-28T13:38:10.079Z,3.87
2017-10-28T13:40:37.577Z,4.03
2017-10-28T13:43:05.041Z,3.93
2017-10-28T13:45:32.503Z,4.97
2017-10-28T13:47:59.980Z,3.50
2017-10-28T13:50:27.439Z,5.33
2017-10-28T13:52:54.904Z,5.20
2017-10-28T13:55:22.415Z,4.40
2017-10-28T13:57:49.885Z,4.80
2017-10-28T14:00:17.352Z,4.73
2017-10-28T14:02:44.825Z,5.33
2017-10-28T14:05:12.299Z,4.17
2017-10-28T14:07:39.746Z,5.00
2017-10-28T14:10:07.252Z,4.80
2017-10-28T14:12:34.717Z,5.20
2017-10-28T14:15:02.193Z,5.23
2017-10-28T14:17:29.683Z,5.07
2017-10-28T14:19:57.147Z,5.40
2017-10-28T14:22:24.607Z,6.13
2017-10-28T14:24:53.448Z,5.10
2017-10-28T14:27:20.954Z,6.30
2017-10-28T14:29:49.185Z,5.50
2017-10-28T14:32:17.576Z,6.00
2017-10-28T14:34:45.318Z,5.20
2017-10-28T14:37:12.869Z,7.00
2017-10-28T14:39:40.359Z,6.40
2017-10-28T14:42:07.814Z,6.13
2017-10-28T14:44:35.281Z,6.10
2017-10-28T14:47:02.743Z,6.63
2017-10-28T14:49:30.207Z,5.93
2017-10-28T14:51:58.460Z,6.27
2017-10-28T14:54:26.869Z,5.93
2017-10-28T14:56:55.325Z,6.60
2017-10-28T14:59:22.788Z,6.80
2017-10-28T15:01:50.263Z,5.90
2017-10-28T15:04:18.544Z,9.13
2017-10-28T15:06:46.780Z,6.10
2017-10-28T15:09:14.309Z,6.83
2017-10-28T15:11:41.769Z,4.60
2017-10-28T15:14:09.237Z,6.00
2017-10-28T15:16:38.827Z,5.23
2017-10-28T15:19:06.288Z,5.40
2017-10-28T15:21:33.753Z,5.23
2017-10-28T15:24:01.291Z,5.77
2017-10-28T15:26:28.777Z,6.00
2017-10-28T15:28:56.232Z,6.80
2017-10-28T15:31:23.720Z,6.93
2017-10-28T15:33:51.189Z,5.80
2017-10-28T15:36:19.307Z,6.03
2017-10-28T15:38:46.796Z,5.70
2017-10-28T15:41:14.267Z,5.97
2017-10-28T15:43:41.735Z,6.50
2017-10-28T15:46:09.984Z,6.50
2017-10-28T15:48:39.084Z,5.23
2017-10-28T15:51:06.549Z,7.03
2017-10-28T15:53:34.108Z,6.03
2017-10-28T15:56:01.590Z,6.30
2017-10-28T15:58:29.815Z,5.23
2017-10-28T16:00:57.286Z,6.10
2017-10-28T16:03:24.842Z,6.73
2017-10-28T16:05:52.295Z,6.90
2017-10-28T16:08:20.562Z,5.77
2017-10-28T16:10:48.048Z,6.10
2017-10-28T16:13:15.513Z,6.83
2017-10-28T16:15:43.768Z,6.30
2017-10-28T16:18:11.251Z,7.17
2017-10-28T16:20:39.492Z,6.40
2017-10-28T16:23:06.968Z,7.97
2017-10-28T16:25:34.427Z,5.93
2017-10-28T16:28:02.697Z,6.87
2017-10-28T16:30:30.168Z,7.53
2017-10-28T16:32:58.401Z,7.40
2017-10-28T16:35:25.867Z,6.13
2017-10-28T16:37:53.340Z,7.20
2017-10-28T16:40:20.845Z,7.33
2017-10-28T16:42:49.088Z,6.20
2017-10-28T16:45:18.205Z,6.40
2017-10-28T16:47:45.763Z,7.33
2017-10-28T16:50:14.003Z,7.20
2017-10-28T16:52:41.472Z,7.73
2017-10-28T16:55:08.928Z,5.87
2017-10-28T16:57:37.179Z,7.57
2017-10-28T17:00:04.651Z,6.77
2017-10-28T17:02:32.116Z,5.90
2017-10-28T17:05:00.360Z,6.00
2017-10-28T17:07:27.831Z,6.13
2017-10-28T17:09:55.303Z,6.53
2017-10-28T17:12:23.540Z,7.43
2017-10-28T17:14:51.002Z,6.17
2017-10-28T17:17:18.454Z,6.33
2017-10-28T17:19:45.966Z,6.63
2017-10-28T17:22:13.427Z,6.50
2017-10-28T17:24:40.903Z,7.33
2017-10-28T17:27:08.380Z,6.63
2017-10-28T17:29:36.716Z,6.87
2017-10-28T17:32:04.179Z,6.70
2017-10-28T17:34:31.652Z,6.33
2017-10-28T17:36:59.129Z,5.90
2017-10-28T17:39:27.079Z,6.30
2017-10-28T17:41:54.561Z,8.23
2017-10-28T17:44:22.015Z,7.63
2017-10-28T17:46:49.493Z,5.93
2017-10-28T17:49:16.971Z,6.10
2017-10-28T17:51:45.210Z,5.97
2017-10-28T17:54:12.708Z,6.00
2017-10-28T17:56:40.951Z,6.50
2017-10-28T17:59:08.412Z,6.27
2017-10-28T18:01:35.910Z,5.47
2017-10-28T18:04:03.388Z,5.73
2017-10-28T18:06:30.843Z,6.10
2017-10-28T18:08:58.308Z,6.33
2017-10-28T18:11:25.828Z,5.80
2017-10-28T18:13:53.312Z,6.27
2017-10-28T18:16:20.783Z,4.63
2017-10-28T18:18:48.252Z,5.10
2017-10-28T18:21:16.489Z,5.97
2017-10-28T18:23:43.950Z,6.33
2017-10-28T18:26:11.427Z,4.63
2017-10-28T18:28:40.780Z,5.67
2017-10-28T18:31:09.020Z,5.60
2017-10-28T18:33:36.602Z,5.40
2017-10-28T18:36:04.055Z,5.50
2017-10-28T18:38:31.509Z,5.97
2017-10-28T18:40:58.992Z,4.97
2017-10-28T18:43:26.458Z,4.97
2017-10-28T18:45:54.636Z,4.43
2017-10-28T18:48:22.111Z,5.13
2017-10-28T18:50:49.575Z,7.00
2017-10-28T18:53:17.044Z,5.53
2017-10-28T18:55:44.524Z,4.23
2017-10-28T18:58:11.995Z,5.33
2017-10-28T19:00:40.924Z,4.73
2017-10-28T19:03:08.404Z,4.13
2017-10-28T19:05:36.744Z,5.07
2017-10-28T19:08:04.227Z,5.53
2017-10-28T19:10:31.712Z,4.70
2017-10-28T19:12:59.683Z,5.57
2017-10-28T19:15:27.143Z,5.30
2017-10-28T19:17:54.674Z,5.20
2017-10-28T19:20:22.739Z,5.70
2017-10-28T19:22:50.196Z,4.93
2017-10-28T19:25:17.675Z,5.17
2017-10-28T19:27:46.143Z,5.50
2017-10-28T19:30:13.604Z,4.60
2017-10-28T19:32:41.079Z,4.60
2017-10-28T19:35:08.544Z,6.10
2017-10-28T19:37:36.784Z,5.50
2017-10-28T19:40:04.259Z,4.83
2017-10-28T19:42:31.730Z,5.17
2017-10-28T19:44:59.196Z,5.40
2017-10-28T19:47:27.435Z,5.43
2017-10-28T19:49:54.893Z,6.20
2017-10-28T19:52:22.367Z,5.47
2017-10-28T19:54:49.835Z,5.43
2017-10-28T19:57:18.433Z,6.40
2017-10-28T19:59:46.776Z,6.87
2017-10-28T20:02:14.248Z,6.20
2017-10-28T20:04:41.725Z,5.80
2017-10-28T20:07:09.968Z,4.90
2017-10-28T20:09:37.439Z,4.93
2017-10-28T20:12:04.900Z,5.70
2017-10-28T20:14:33.968Z,5.60
2017-10-28T20:17:01.444Z,4.90
2017-10-28T20:19:29.704Z,6.77
2017-10-28T20:21:57.188Z,5.57
2017-10-28T20:24:24.683Z,5.27
2017-10-28T20:26:52.138Z,5.40
2017-10-28T20:29:19.620Z,4.53
2017-10-28T20:31:47.108Z,4.37
2017-10-28T20:34:14.568Z,4.23
2017-10-28T20:36:42.818Z,5.60
2017-10-28T20:39:10.289Z,5.13
2017-10-28T20:41:37.847Z,4.80
2017-10-28T20:44:05.311Z,4.60
2017-10-28T20:46:32.780Z,5.53
2017-10-28T20:49:01.019Z,5.30
2017-10-28T20:51:28.491Z,6.80
2017-10-28T20:53:55.964Z,5.20
2017-10-28T20:56:24.192Z,5.03
2017-10-28T20:58:52.375Z,5.10
2017-10-28T21:01:19.843Z,5.10
2017-10-28T21:03:47.318Z,4.60
2017-10-28T21:06:15.571Z,4.90
2017-10-28T21:08:43.053Z,6.13
2017-10-28T21:11:11.319Z,5.17
2017-10-28T21:13:39.587Z,6.37
2017-10-28T21:16:08.564Z,5.20
2017-10-28T21:18:36.035Z,4.50
2017-10-28T21:21:04.275Z,5.30
2017-10-28T21:23:31.750Z,5.23
2017-10-28T21:25:59.223Z,6.60
2017-10-28T21:28:26.703Z,4.73
2017-10-28T21:30:54.944Z,4.90
2017-10-28T21:33:22.424Z,5.40
2017-10-28T21:35:49.907Z,6.23
2017-10-28T21:38:17.384Z,6.43
2017-10-28T21:40:44.857Z,6.90
2017-10-28T21:43:12.331Z,6.00
2017-10-28T21:45:39.804Z,5.50
2017-10-28T21:48:07.276Z,5.70
2017-10-28T21:50:35.503Z,5.40
2017-10-28T21:53:02.967Z,5.83
2017-10-28T21:55:30.439Z,5.40
2017-10-28T21:57:58.863Z,5.77
2017-10-28T22:00:26.314Z,5.30
2017-10-28T22:02:53.844Z,5.00
2017-10-28T22:05:21.311Z,5.93
2017-10-28T22:07:49.553Z,5.97
2017-10-28T22:10:17.027Z,6.40
2017-10-28T22:12:44.498Z,4.67
2017-10-28T22:15:12.743Z,4.93
2017-10-28T22:17:40.204Z,5.47
2017-10-28T22:20:07.680Z,5.60
2017-10-28T22:22:35.160Z,5.40
2017-10-28T22:25:03.404Z,5.50
2017-10-28T22:27:30.870Z,4.97
2017-10-28T22:29:58.331Z,5.30
2017-10-28T22:32:26.603Z,5.20
2017-10-28T22:34:54.063Z,5.90
2017-10-28T22:37:22.331Z,5.50
2017-10-28T22:39:49.803Z,5.50
2017-10-28T22:42:18.031Z,6.27
2017-10-28T22:44:45.512Z,6.20
2017-10-28T22:47:12.971Z,5.90
2017-10-28T22:49:40.439Z,6.03
2017-10-28T22:52:07.936Z,6.30
2017-10-28T22:54:35.454Z,6.40
2017-10-28T22:57:03.692Z,5.77
2017-10-28T22:59:31.172Z,5.90
2017-10-28T23:01:59.424Z,6.17
2017-10-28T23:04:26.883Z,6.23
2017-10-28T23:06:54.368Z,8.37
2017-10-28T23:09:21.835Z,5.73
2017-10-28T23:11:50.060Z,4.93
2017-10-28T23:14:17.524Z,5.47
2017-10-28T23:16:45.007Z,6.40
2017-10-28T23:19:12.522Z,5.87
2017-10-28T23:21:40.808Z,5.20
2017-10-28T23:24:08.280Z,5.40
2017-10-28T23:26:35.756Z,6.13
2017-10-28T23:29:03.220Z,5.87
2017-10-28T23:31:30.702Z,5.60
2017-10-28T23:33:58.988Z,5.53
2017-10-28T23:36:26.460Z,5.33
2017-10-28T23:38:53.927Z,7.70
2017-10-28T23:41:21.395Z,6.40
2017-10-28T23:43:49.633Z,7.93
2017-10-28T23:46:17.082Z,5.57
2017-10-28T23:48:44.566Z,5.07
2017-10-28T23:51:12.040Z,6.77
2017-10-28T23:53:39.508Z,7.00
2017-10-28T23:56:06.978Z,6.40
2017-10-28T23:58:34.457Z,7.07
